createdAt,value
2018-03-19T00:01:15.910Z,17.55
2018-03-19T00:03:43.380Z,16.00
2018-03-19T00:06:10.846Z,18.27
2018-03-19T00:08:39.083Z,18.50
2018-03-19T00:11:06.559Z,16.85
2018-03-19T00:13:34.034Z,17.27
2018-03-19T00:16:01.503Z,18.00
2018-03-19T00:18:29.743Z,16.80
2018-03-19T00:20:57.223Z,17.40
2018-03-19T00:23:24.693Z,18.80
2018-03-19T00:25:52.166Z,16.90
2018-03-19T00:28:19.629Z,18.12
2018-03-19T00:30:47.124Z,18.40
2018-03-19T00:33:14.582Z,17.62
2018-03-19T00:35:42.058Z,18.05
2018-03-19T00:38:09.521Z,17.35
2018-03-19T00:40:36.989Z,18.60
2018-03-19T00:43:04.454Z,18.12
2018-03-19T00:45:31.915Z,18.63
2018-03-19T00:48:00.149Z,17.62
2018-03-19T00:50:27.627Z,18.80
2018-03-19T00:52:55.097Z,18.00
2018-03-19T00:55:22.563Z,18.48
2018-03-19T00:57:50.823Z,18.33
2018-03-19T01:00:18.296Z,17.80
2018-03-19T01:02:45.766Z,17.73
2018-03-19T01:05:13.991Z,17.50
2018-03-19T01:07:41.466Z,18.90
2018-03-19T01:10:08.934Z,17.83
2018-03-19T01:12:36.419Z,17.85
2018-03-19T01:15:04.648Z,19.50
2018-03-19T01:17:32.120Z,18.05
2018-03-19T01:19:59.592Z,19.20
2018-03-19T01:22:27.050Z,19.07
2018-03-19T01:24:54.517Z,18.30
2018-03-19T01:27:21.996Z,18.40
2018-03-19T01:29:50.227Z,18.30
2018-03-19T01:32:17.703Z,18.58
2018-03-19T01:34:45.162Z,18.73
2018-03-19T01:37:12.629Z,18.73
2018-03-19T01:39:40.855Z,19.23
2018-03-19T01:42:08.354Z,19.58
2018-03-19T01:44:35.814Z,18.60
2018-03-19T01:47:03.299Z,18.62
2018-03-19T01:49:31.524Z,18.98
2018-03-19T01:51:58.998Z,19.87
2018-03-19T01:54:26.470Z,19.77
2018-03-19T01:56:53.938Z,21.15
2018-03-19T01:59:22.171Z,18.98
2018-03-19T02:01:49.647Z,19.60
2018-03-19T02:04:17.108Z,19.80
2018-03-19T02:06:44.580Z,21.30
2018-03-19T02:09:12.814Z,19.27
2018-03-19T02:11:40.286Z,19.83
2018-03-19T02:14:07.737Z,18.85
2018-03-19T02:16:35.219Z,17.70
2018-03-19T02:19:02.679Z,17.00
2018-03-19T02:21:30.155Z,17.27
2018-03-19T02:23:58.387Z,18.00
2018-03-19T02:26:25.866Z,18.08
2018-03-19T02:28:53.336Z,18.50
2018-03-19T02:31:21.594Z,17.30
2018-03-19T02:33:49.060Z,17.40
2018-03-19T02:36:16.526Z,17.95
2018-03-19T02:38:44.004Z,17.73
2018-03-19T02:41:12.240Z,17.90
2018-03-19T02:43:39.729Z,17.00
2018-03-19T02:46:07.187Z,16.80
2018-03-19T02:48:35.422Z,17.37
2018-03-19T02:51:02.883Z,17.90
2018-03-19T02:53:30.354Z,17.60
2018-03-19T02:55:57.825Z,18.00
2018-03-19T02:58:25.277Z,17.23
2018-03-19T03:00:52.750Z,17.45
2018-03-19T03:03:20.209Z,17.43
2018-03-19T03:05:48.450Z,16.70
2018-03-19T03:08:15.926Z,17.60
2018-03-19T03:10:43.385Z,17.75
2018-03-19T03:13:10.864Z,16.92
2018-03-19T03:15:39.096Z,17.98
2018-03-19T03:18:06.570Z,17.90
2018-03-19T03:20:34.031Z,17.85
2018-03-19T03:23:01.510Z,19.70
2018-03-19T03:25:29.747Z,18.87
2018-03-19T03:27:57.225Z,19.73
2018-03-19T03:30:24.689Z,18.70
2018-03-19T03:32:52.153Z,20.45
2018-03-19T03:35:19.621Z,20.10
2018-03-19T03:37:47.858Z,20.50
2018-03-19T03:40:15.338Z,21.00
2018-03-19T03:42:42.805Z,21.00
2018-03-19T03:45:10.279Z,19.60
2018-03-19T03:47:38.505Z,21.75
2018-03-19T03:50:05.975Z,22.00
2018-03-19T03:52:33.458Z,20.98
2018-03-19T03:55:00.926Z,21.70
2018-03-19T03:57:29.150Z,21.98
2018-03-19T03:59:56.618Z,21.70
2018-03-19T04:02:24.090Z,20.80
2018-03-19T04:04:51.542Z,20.75
2018-03-19T04:07:19.783Z,21.37
2018-03-19T04:09:47.246Z,21.45
2018-03-19T04:12:14.710Z,21.00
2018-03-19T04:14:42.174Z,20.30
2018-03-19T04:17:09.655Z,21.62
2018-03-19T04:19:37.112Z,21.30
2018-03-19T04:22:04.574Z,21.17
2018-03-19T04:24:32.037Z,21.10
2018-03-19T04:26:59.500Z,19.80
2018-03-19T04:29:26.954Z,19.62
2018-03-19T04:31:54.421Z,20.12
2018-03-19T04:34:21.887Z,20.12
2018-03-19T04:36:49.362Z,19.30
2018-03-19T04:39:17.596Z,19.37
2018-03-19T04:41:45.049Z,19.37
2018-03-19T04:44:12.510Z,18.08
2018-03-19T04:46:39.965Z,18.42
2018-03-19T04:49:08.210Z,19.65
2018-03-19T04:51:35.675Z,18.83
2018-03-19T04:54:03.155Z,19.30
2018-03-19T04:56:30.609Z,17.67
2018-03-19T04:58:58.075Z,18.83
2018-03-19T05:01:25.571Z,17.30
2018-03-19T05:03:53.007Z,17.35
2018-03-19T05:06:20.462Z,18.00
2018-03-19T05:08:47.925Z,18.02
2018-03-19T05:11:15.446Z,16.42
2018-03-19T05:13:42.874Z,16.40
2018-03-19T05:16:10.351Z,16.20
2018-03-19T05:18:37.818Z,17.05
2018-03-19T05:21:05.290Z,16.52
2018-03-19T05:23:32.760Z,16.35
2018-03-19T05:26:00.219Z,16.75
2018-03-19T05:28:27.687Z,17.20
2018-03-19T05:30:55.142Z,16.67
2018-03-19T05:33:22.601Z,15.77
2018-03-19T05:35:50.063Z,16.60
2018-03-19T05:38:17.530Z,16.00
2018-03-19T05:40:44.990Z,15.77
2018-03-19T05:43:12.470Z,15.50
2018-03-19T05:45:40.698Z,16.50
2018-03-19T05:48:08.225Z,17.57
2018-03-19T05:50:35.630Z,17.58
2018-03-19T05:53:03.100Z,16.37
2018-03-19T05:55:30.582Z,16.87
2018-03-19T05:57:58.804Z,17.30
2018-03-19T06:00:26.269Z,16.55
2018-03-19T06:02:54.515Z,17.27
2018-03-19T06:05:21.973Z,16.57
2018-03-19T06:07:49.444Z,17.58
2018-03-19T06:10:16.908Z,17.60
2018-03-19T06:12:44.374Z,17.23
2018-03-19T06:15:11.837Z,17.02
2018-03-19T06:17:39.314Z,17.12
2018-03-19T06:20:06.770Z,16.87
2018-03-19T06:22:34.250Z,18.30
2018-03-19T06:25:02.483Z,18.70
2018-03-19T06:27:29.942Z,17.43
2018-03-19T06:29:57.406Z,16.20
2018-03-19T06:32:24.858Z,15.93
2018-03-19T06:34:52.318Z,15.52
2018-03-19T06:37:19.769Z,17.17
2018-03-19T06:39:47.230Z,14.47
2018-03-19T06:42:14.697Z,12.13
2018-03-19T06:44:42.164Z,11.80
2018-03-19T06:47:09.672Z,12.47
2018-03-19T06:49:37.102Z,11.10
2018-03-19T06:52:05.321Z,12.33
2018-03-19T06:54:32.786Z,10.57
2018-03-19T06:57:00.251Z,11.57
2018-03-19T06:59:28.477Z,11.50
2018-03-19T07:01:56.706Z,11.77
2018-03-19T07:04:24.174Z,11.80
2018-03-19T07:06:51.634Z,10.50
2018-03-19T07:09:19.096Z,12.23
2018-03-19T07:11:46.549Z,12.17
2018-03-19T07:14:15.006Z,11.23
2018-03-19T07:16:42.465Z,11.77
2018-03-19T07:19:09.934Z,12.67
2018-03-19T07:21:37.393Z,10.27
2018-03-19T07:24:04.858Z,10.83
2018-03-19T07:26:32.327Z,10.43
2018-03-19T07:28:59.785Z,13.65
2018-03-19T07:31:27.238Z,11.70
2018-03-19T07:33:54.742Z,11.80
2018-03-19T07:36:22.187Z,12.37
2018-03-19T07:38:50.418Z,10.87
2018-03-19T07:41:17.884Z,11.27
2018-03-19T07:43:45.350Z,11.83
2018-03-19T07:46:12.806Z,9.80
2018-03-19T07:48:40.273Z,10.07
2018-03-19T07:51:07.733Z,11.73
2018-03-19T07:53:35.202Z,14.10
2018-03-19T07:56:03.430Z,14.10
2018-03-19T07:58:30.896Z,13.88
2018-03-19T08:00:58.352Z,11.27
2018-03-19T08:03:25.854Z,12.10
2018-03-19T08:05:54.087Z,10.60
2018-03-19T08:08:21.554Z,10.80
2018-03-19T08:10:49.018Z,10.03
2018-03-19T08:13:16.501Z,9.50
2018-03-19T08:15:44.726Z,9.87
2018-03-19T08:18:12.200Z,11.00
2018-03-19T08:20:39.669Z,13.20
2018-03-19T08:23:07.131Z,14.23
2018-03-19T08:25:34.590Z,14.10
2018-03-19T08:28:02.066Z,10.63
2018-03-19T08:30:30.359Z,10.30
2018-03-19T08:32:57.761Z,9.40
2018-03-19T08:35:25.226Z,10.37
2018-03-19T08:37:52.682Z,10.87
2018-03-19T08:40:20.168Z,11.60
2018-03-19T08:42:47.613Z,11.20
2018-03-19T08:45:15.077Z,11.60
2018-03-19T08:47:42.551Z,11.73
2018-03-19T08:50:10.782Z,10.30
2018-03-19T08:52:38.238Z,10.77
2018-03-19T08:55:05.715Z,11.40
2018-03-19T08:57:33.174Z,11.43
2018-03-19T09:00:00.659Z,12.00
2018-03-19T09:02:28.892Z,15.45
2018-03-19T09:04:56.365Z,15.60
2018-03-19T09:07:23.826Z,15.43
2018-03-19T09:09:51.316Z,16.12
2018-03-19T09:12:18.779Z,15.90
2018-03-19T09:17:14.038Z,15.60
2018-03-19T09:19:41.511Z,16.25
2018-03-19T09:22:08.974Z,16.37
2018-03-19T09:24:36.438Z,15.13
2018-03-19T09:27:03.887Z,12.37
2018-03-19T09:29:31.375Z,12.90
2018-03-19T09:31:58.842Z,12.93
2018-03-19T09:34:27.079Z,11.90
2018-03-19T09:36:54.545Z,10.20
2018-03-19T09:39:22.018Z,12.17
2018-03-19T09:41:49.484Z,10.87
2018-03-19T09:44:16.946Z,11.17
2018-03-19T09:46:44.407Z,11.50
2018-03-19T09:49:12.647Z,10.87
2018-03-19T09:51:40.101Z,11.80
2018-03-19T09:54:07.569Z,11.37
2018-03-19T09:56:35.023Z,12.63
2018-03-19T09:59:02.487Z,10.60
2018-03-19T10:01:29.949Z,9.83
2018-03-19T10:03:57.422Z,11.57
2018-03-19T10:06:24.898Z,11.63
2018-03-19T10:08:53.129Z,10.80
2018-03-19T10:11:20.595Z,10.97
2018-03-19T10:13:48.076Z,11.50
2018-03-19T10:16:15.566Z,12.67
2018-03-19T10:18:43.021Z,9.60
2018-03-19T10:21:11.239Z,11.07
2018-03-19T10:23:38.697Z,11.93
2018-03-19T10:26:06.173Z,11.40
2018-03-19T10:28:33.634Z,11.37
2018-03-19T10:31:01.103Z,10.97
2018-03-19T10:33:28.593Z,11.33
2018-03-19T10:35:56.038Z,11.10
2018-03-19T10:38:24.267Z,12.40
2018-03-19T10:40:51.742Z,12.77
2018-03-19T10:43:19.212Z,11.67
2018-03-19T10:45:46.695Z,12.80
2018-03-19T10:48:14.920Z,13.30
2018-03-19T10:50:42.394Z,11.00
2018-03-19T10:53:09.853Z,12.00
2018-03-19T10:55:37.323Z,10.70
2018-03-19T10:58:04.795Z,12.40
2018-03-19T11:00:33.041Z,15.80
2018-03-19T11:03:06.313Z,16.00
2018-03-19T11:05:39.434Z,16.53
2018-03-19T11:08:08.840Z,16.30
2018-03-19T11:10:36.316Z,16.15
2018-03-19T11:13:04.546Z,16.37
2018-03-19T11:15:32.016Z,15.90
2018-03-19T11:17:59.468Z,15.80
2018-03-19T11:20:26.951Z,17.00
2018-03-19T11:22:54.412Z,16.00
2018-03-19T11:25:21.881Z,16.47
2018-03-19T11:27:50.132Z,15.95
2018-03-19T11:30:17.616Z,16.70
2018-03-19T11:32:45.842Z,16.40
2018-03-19T11:35:14.075Z,16.23
2018-03-19T11:37:42.320Z,17.35
2018-03-19T11:40:09.803Z,17.30
2018-03-19T11:42:38.023Z,17.67
2018-03-19T11:45:05.542Z,16.42
2018-03-19T11:47:33.766Z,16.50
2018-03-19T11:50:01.247Z,17.58
2018-03-19T11:52:28.711Z,16.33
2018-03-19T11:54:56.188Z,16.40
2018-03-19T11:57:24.414Z,16.95
2018-03-19T11:59:51.904Z,17.73
2018-03-19T12:02:19.365Z,16.30
2018-03-19T12:04:46.885Z,16.70
2018-03-19T12:07:15.061Z,17.67
2018-03-19T12:09:42.530Z,16.55
2018-03-19T12:12:10.006Z,16.48
2018-03-19T12:14:37.467Z,16.23
2018-03-19T12:17:04.926Z,16.15
2018-03-19T12:19:32.398Z,16.45
2018-03-19T12:22:00.633Z,17.40
2018-03-19T12:24:28.111Z,17.67
2018-03-19T12:26:55.571Z,16.70
2018-03-19T12:29:23.034Z,17.75
2018-03-19T12:31:50.501Z,17.08
2018-03-19T12:34:17.978Z,17.40
2018-03-19T12:36:46.209Z,16.35
2018-03-19T12:39:13.663Z,16.87
2018-03-19T12:41:41.132Z,16.73
2018-03-19T12:44:08.604Z,17.27
2018-03-19T12:46:36.078Z,17.02
2018-03-19T12:49:04.296Z,17.50
2018-03-19T12:51:31.766Z,16.85
2018-03-19T12:53:59.244Z,17.30
2018-03-19T12:56:26.722Z,16.92
2018-03-19T12:58:54.193Z,17.25
2018-03-19T13:01:22.451Z,16.98
2018-03-19T13:03:49.900Z,16.40
2018-03-19T13:06:17.379Z,16.92
2018-03-19T13:08:45.628Z,17.33
2018-03-19T13:11:13.090Z,17.40
2018-03-19T13:13:40.559Z,17.45
2018-03-19T13:16:08.026Z,15.70
2018-03-19T13:18:36.246Z,15.38
2018-03-19T13:21:03.725Z,16.10
2018-03-19T13:23:31.193Z,17.12
2018-03-19T13:25:58.650Z,16.67
2018-03-19T13:28:26.106Z,16.50
2018-03-19T13:30:53.567Z,16.00
2018-03-19T13:33:21.030Z,17.12
2018-03-19T13:35:48.506Z,16.20
2018-03-19T13:38:15.964Z,16.92
2018-03-19T13:40:43.430Z,16.20
2018-03-19T13:43:11.654Z,15.50
2018-03-19T13:45:39.147Z,16.05
2018-03-19T13:48:06.614Z,17.67
2018-03-19T13:50:34.091Z,16.30
2018-03-19T13:53:02.334Z,15.57
2018-03-19T13:55:29.803Z,16.67
2018-03-19T13:57:57.275Z,16.13
2018-03-19T14:00:25.517Z,16.62
2018-03-19T14:02:52.970Z,16.60
2018-03-19T14:05:20.434Z,17.07
2018-03-19T14:07:47.890Z,16.92
2018-03-19T14:10:15.355Z,16.45
2018-03-19T14:12:42.851Z,16.40
2018-03-19T14:15:11.077Z,17.23
2018-03-19T14:17:38.538Z,16.40
2018-03-19T14:20:06.017Z,16.77
2018-03-19T14:22:33.503Z,17.10
2018-03-19T14:25:01.731Z,18.23
2018-03-19T14:27:29.242Z,17.45
2018-03-19T14:29:57.441Z,17.50
2018-03-19T14:32:24.913Z,18.07
2018-03-19T14:34:52.362Z,18.52
2018-03-19T14:37:19.838Z,18.40
2018-03-19T14:39:47.307Z,17.58
2018-03-19T14:42:14.778Z,17.73
2018-03-19T14:44:42.243Z,18.15
2018-03-19T14:47:09.730Z,17.83
2018-03-19T14:49:37.198Z,19.80
2018-03-19T14:52:04.665Z,18.17
2018-03-19T14:54:32.144Z,20.20
2018-03-19T14:56:59.757Z,16.50
2018-03-19T14:59:27.236Z,14.50
2018-03-19T15:01:54.721Z,14.93
2018-03-19T15:09:16.974Z,18.48
2018-03-19T15:11:44.444Z,21.17
2018-03-19T15:14:11.947Z,20.62
2018-03-19T15:16:39.373Z,19.15
2018-03-19T15:19:06.826Z,17.73
2018-03-19T15:21:34.294Z,16.43
2018-03-19T15:24:01.746Z,15.23
2018-03-19T15:26:29.223Z,15.50
2018-03-19T15:28:56.681Z,15.57
2018-03-19T15:31:24.204Z,14.57
2018-03-19T15:33:52.389Z,14.87
2018-03-19T15:36:19.861Z,13.63
2018-03-19T15:38:47.330Z,13.80
2018-03-19T15:41:14.802Z,14.53
2018-03-19T15:43:42.270Z,14.17
2018-03-19T15:46:10.720Z,14.43
2018-03-19T15:48:38.179Z,15.20
2018-03-19T15:51:05.635Z,13.83
2018-03-19T15:53:33.891Z,15.43
2018-03-19T15:56:01.350Z,14.60
2018-03-19T15:58:28.831Z,14.27
2018-03-19T16:00:56.286Z,13.70
2018-03-19T16:03:23.749Z,14.23
2018-03-19T16:05:51.205Z,14.37
2018-03-19T16:08:18.679Z,13.60
2018-03-19T16:10:46.133Z,14.87
2018-03-19T16:13:13.613Z,13.33
2018-03-19T16:15:41.830Z,15.40
2018-03-19T16:18:09.314Z,12.13
2018-03-19T16:20:36.778Z,13.37
2018-03-19T16:23:04.248Z,13.47
2018-03-19T16:25:31.707Z,14.13
2018-03-19T16:27:59.171Z,13.63
2018-03-19T16:30:27.414Z,13.80
2018-03-19T16:32:54.883Z,15.03
2018-03-19T16:35:22.346Z,14.07
2018-03-19T16:37:49.805Z,13.40
2018-03-19T16:40:17.265Z,14.70
2018-03-19T16:42:44.731Z,13.23
2018-03-19T16:45:12.184Z,13.80
2018-03-19T16:47:39.645Z,13.37
2018-03-19T16:50:07.108Z,13.97
2018-03-19T16:52:34.574Z,12.07
2018-03-19T16:55:02.796Z,13.77
2018-03-19T16:57:30.262Z,12.57
2018-03-19T16:59:57.741Z,14.07
2018-03-19T17:02:25.214Z,13.50
2018-03-19T17:04:52.675Z,14.73
2018-03-19T17:07:20.138Z,14.20
2018-03-19T17:09:48.372Z,12.97
2018-03-19T17:12:15.834Z,14.23
2018-03-19T17:14:43.295Z,13.40
2018-03-19T17:17:10.757Z,14.33
2018-03-19T17:19:38.210Z,14.97
2018-03-19T17:22:06.449Z,13.67
2018-03-19T17:24:33.925Z,13.77
2018-03-19T17:27:01.404Z,14.77
2018-03-19T17:29:28.867Z,14.63
2018-03-19T17:31:56.334Z,14.20
2018-03-19T17:34:23.815Z,13.73
2018-03-19T17:36:52.053Z,13.60
2018-03-19T17:39:20.287Z,12.83
2018-03-19T17:41:47.739Z,12.83
2018-03-19T17:44:15.215Z,13.97
2018-03-19T17:46:42.678Z,14.50
2018-03-19T17:49:10.150Z,15.10
2018-03-19T17:51:37.608Z,15.50
2018-03-19T17:54:05.099Z,13.37
2018-03-19T17:56:32.545Z,14.50
2018-03-19T17:59:00.014Z,14.97
2018-03-19T18:01:27.477Z,13.37
2018-03-19T18:03:54.951Z,15.03
2018-03-19T18:06:23.175Z,15.27
2018-03-19T18:08:50.637Z,14.90
2018-03-19T18:11:18.121Z,16.07
2018-03-19T18:13:45.599Z,13.50
2018-03-19T18:16:13.824Z,14.33
2018-03-19T18:18:41.303Z,15.37
2018-03-19T18:21:08.766Z,13.97
2018-03-19T18:23:36.237Z,15.73
2018-03-19T18:26:03.704Z,13.53
2018-03-19T18:28:31.947Z,15.53
2018-03-19T18:30:59.410Z,15.70
2018-03-19T18:33:26.886Z,16.00
2018-03-19T18:35:54.342Z,15.70
2018-03-19T18:38:21.805Z,15.97
2018-03-19T18:40:49.272Z,15.80
2018-03-19T18:43:17.514Z,17.43
2018-03-19T18:45:44.970Z,16.43
2018-03-19T18:48:12.442Z,15.70
2018-03-19T18:50:39.890Z,16.80
2018-03-19T18:53:07.354Z,15.80
2018-03-19T18:55:34.815Z,16.03
2018-03-19T18:58:02.275Z,16.07
2018-03-19T19:00:29.734Z,15.27
2018-03-19T19:02:57.200Z,14.90
2018-03-19T19:05:24.652Z,14.67
2018-03-19T19:07:52.118Z,16.03
2018-03-19T19:10:19.581Z,15.27
2018-03-19T19:12:47.046Z,13.93
2018-03-19T19:15:15.286Z,14.50
2018-03-19T19:17:42.760Z,14.10
2018-03-19T19:20:10.281Z,14.23
2018-03-19T19:22:38.508Z,14.40
2018-03-19T19:25:05.967Z,15.77
2018-03-19T19:27:33.442Z,14.00
2018-03-19T19:30:01.720Z,16.27
2018-03-19T19:32:29.959Z,15.73
2018-03-19T19:34:58.923Z,15.40
2018-03-19T19:37:26.382Z,16.07
2018-03-19T19:39:53.844Z,17.03
2018-03-19T19:42:21.310Z,13.50
2018-03-19T19:44:48.774Z,13.40
2018-03-19T19:47:16.238Z,14.80
2018-03-19T19:49:43.705Z,14.70
2018-03-19T19:52:11.159Z,14.10
2018-03-19T19:54:38.632Z,14.10
2018-03-19T19:57:06.091Z,14.00
2018-03-19T19:59:33.555Z,14.90
2018-03-19T20:02:01.010Z,14.70
2018-03-19T20:04:28.484Z,14.43
2018-03-19T20:06:56.703Z,15.77
2018-03-19T20:09:24.177Z,16.43
2018-03-19T20:11:51.641Z,14.43
2018-03-19T20:14:19.881Z,16.83
2018-03-19T20:16:47.345Z,16.37
2018-03-19T20:19:14.802Z,16.93
2018-03-19T20:21:42.265Z,15.10
2018-03-19T20:24:09.729Z,16.63
2018-03-19T20:26:37.186Z,15.80
2018-03-19T20:29:04.661Z,16.87
2018-03-19T20:31:32.960Z,15.50
2018-03-19T20:34:00.417Z,14.13
2018-03-19T20:36:27.890Z,12.87
2018-03-19T20:38:56.126Z,14.03
2018-03-19T20:41:23.653Z,14.50
2018-03-19T20:43:51.058Z,12.10
2018-03-19T20:46:18.515Z,15.03
2018-03-19T20:48:45.987Z,14.77
2018-03-19T20:51:13.437Z,13.60
2018-03-19T20:53:40.912Z,15.00
2018-03-19T20:56:09.133Z,13.27
2018-03-19T20:58:36.598Z,14.07
2018-03-19T21:01:04.065Z,16.50
2018-03-19T21:03:31.531Z,13.90
2018-03-19T21:05:58.993Z,14.90
2018-03-19T21:08:26.471Z,16.73
2018-03-19T21:10:53.939Z,16.20
2018-03-19T21:13:22.171Z,17.30
2018-03-19T21:15:49.630Z,17.37
2018-03-19T21:18:17.093Z,15.97
2018-03-19T21:20:44.554Z,16.17
2018-03-19T21:23:12.035Z,18.20
2018-03-19T21:25:39.494Z,17.40
2018-03-19T21:28:06.960Z,18.97
2018-03-19T21:30:35.187Z,17.73
2018-03-19T21:33:02.644Z,17.20
2018-03-19T21:35:30.120Z,17.10
2018-03-19T21:37:57.583Z,17.20
2018-03-19T21:40:25.046Z,19.67
2018-03-19T21:42:52.510Z,18.47
2018-03-19T21:45:19.999Z,18.80
2018-03-19T21:47:48.214Z,18.53
2018-03-19T21:50:15.690Z,19.00
2018-03-19T21:52:43.137Z,18.87
2018-03-19T21:55:10.597Z,19.70
2018-03-19T21:57:38.060Z,17.77
2018-03-19T22:00:05.532Z,18.83
2018-03-19T22:02:32.995Z,19.53
2018-03-19T22:05:00.458Z,18.33
2018-03-19T22:07:27.917Z,18.07
2018-03-19T22:09:55.379Z,17.97
2018-03-19T22:12:22.853Z,18.93
2018-03-19T22:14:51.086Z,18.70
2018-03-19T22:17:18.567Z,19.07
2018-03-19T22:19:46.036Z,18.90
2018-03-19T22:22:14.273Z,18.73
2018-03-19T22:24:41.742Z,18.30
2018-03-19T22:27:09.206Z,16.57
2018-03-19T22:29:36.675Z,19.17
2018-03-19T22:32:04.134Z,18.87
2018-03-19T22:34:31.605Z,18.63
2018-03-19T22:36:59.834Z,17.00
2018-03-19T22:39:27.317Z,25.02
2018-03-19T22:41:54.795Z,24.30
2018-03-19T22:44:23.031Z,24.20
2018-03-19T22:46:50.483Z,19.27
2018-03-19T22:49:17.952Z,18.87
2018-03-19T22:51:45.408Z,19.50
2018-03-19T22:54:12.878Z,16.53
2018-03-19T22:56:40.340Z,18.17
2018-03-19T22:59:07.805Z,17.20
2018-03-19T23:01:35.266Z,17.50
2018-03-19T23:04:02.750Z,17.33
2018-03-19T23:06:30.988Z,18.13
2018-03-19T23:08:58.449Z,15.27
2018-03-19T23:11:25.906Z,18.77
2018-03-19T23:13:53.366Z,16.60
2018-03-19T23:16:20.822Z,22.90
2018-03-19T23:18:48.290Z,24.17
2018-03-19T23:21:15.764Z,23.17
2018-03-19T23:23:43.998Z,24.98
2018-03-19T23:26:11.460Z,24.10
2018-03-19T23:28:38.905Z,22.95
2018-03-19T23:31:06.370Z,23.57
2018-03-19T23:33:33.830Z,22.75
2018-03-19T23:36:02.075Z,23.02
2018-03-19T23:38:29.550Z,23.25
2018-03-19T23:40:57.005Z,22.45
2018-03-19T23:43:24.458Z,22.57
2018-03-19T23:45:51.923Z,21.62
2018-03-19T23:48:19.378Z,23.03
2018-03-19T23:50:46.859Z,21.50
2018-03-19T23:53:14.320Z,22.95
2018-03-19T23:55:41.788Z,21.95
2018-03-19T23:58:09.247Z,23.70
